sensor_id;sensor_type;location;lat;lon;timestamp;P1;durP1;ratioP1;P2;durP2;ratioP2
70312;SDS011;57723;51.698;5.344;2023-04-15T00:00:52;2.13;;;0.90;;
70312;SDS011;57723;51.698;5.344;2023-04-15T00:03:17;1.97;;;0.80;;
70312;SDS011;57723;51.698;5.344;2023-04-15T00:05:42;1.60;;;0.80;;
70312;SDS011;57723;51.698;5.344;2023-04-15T00:08:08;0.80;;;0.70;;
70312;SDS011;57723;51.698;5.344;2023-04-15T00:10:33;2.20;;;1.20;;
70312;SDS011;57723;51.698;5.344;2023-04-15T00:12:59;1.13;;;0.77;;
70312;SDS011;57723;51.698;5.344;2023-04-15T00:15:24;2.38;;;0.73;;
70312;SDS011;57723;51.698;5.344;2023-04-15T00:17:53;0.90;;;0.60;;
70312;SDS011;57723;51.698;5.344;2023-04-15T00:20:18;1.42;;;0.70;;
70312;SDS011;57723;51.698;5.344;2023-04-15T00:22:43;0.83;;;0.67;;
70312;SDS011;57723;51.698;5.344;2023-04-15T00:25:09;1.80;;;0.80;;
70312;SDS011;57723;51.698;5.344;2023-04-15T00:27:34;2.37;;;0.70;;
70312;SDS011;57723;51.698;5.344;2023-04-15T00:29:59;1.50;;;0.80;;
70312;SDS011;57723;51.698;5.344;2023-04-15T00:32:25;1.73;;;0.63;;
70312;SDS011;57723;51.698;5.344;2023-04-15T00:34:50;2.47;;;0.70;;
70312;SDS011;57723;51.698;5.344;2023-04-15T00:37:15;1.25;;;0.70;;
70312;SDS011;57723;51.698;5.344;2023-04-15T00:39:40;3.67;;;0.70;;
70312;SDS011;57723;51.698;5.344;2023-04-15T00:42:06;2.37;;;0.80;;
70312;SDS011;57723;51.698;5.344;2023-04-15T00:44:32;1.87;;;0.80;;
70312;SDS011;57723;51.698;5.344;2023-04-15T00:46:57;1.85;;;0.70;;
70312;SDS011;57723;51.698;5.344;2023-04-15T00:49:23;2.20;;;0.77;;
70312;SDS011;57723;51.698;5.344;2023-04-15T00:51:48;2.53;;;0.77;;
70312;SDS011;57723;51.698;5.344;2023-04-15T00:54:14;2.40;;;0.83;;
70312;SDS011;57723;51.698;5.344;2023-04-15T00:56:40;1.70;;;0.80;;
70312;SDS011;57723;51.698;5.344;2023-04-15T00:59:06;2.50;;;0.68;;
70312;SDS011;57723;51.698;5.344;2023-04-15T01:01:33;1.42;;;0.70;;
70312;SDS011;57723;51.698;5.344;2023-04-15T01:03:58;1.50;;;0.70;;
70312;SDS011;57723;51.698;5.344;2023-04-15T01:06:23;0.93;;;0.67;;
70312;SDS011;57723;51.698;5.344;2023-04-15T01:08:49;1.27;;;0.70;;
70312;SDS011;57723;51.698;5.344;2023-04-15T01:11:14;3.37;;;0.80;;
70312;SDS011;57723;51.698;5.344;2023-04-15T01:13:40;1.05;;;0.70;;
70312;SDS011;57723;51.698;5.344;2023-04-15T01:16:06;2.17;;;0.90;;
70312;SDS011;57723;51.698;5.344;2023-04-15T01:18:33;2.63;;;0.70;;
70312;SDS011;57723;51.698;5.344;2023-04-15T01:20:59;1.33;;;0.80;;
70312;SDS011;57723;51.698;5.344;2023-04-15T01:23:24;2.78;;;0.70;;
70312;SDS011;57723;51.698;5.344;2023-04-15T01:25:50;1.73;;;0.70;;
70312;SDS011;57723;51.698;5.344;2023-04-15T01:28:16;2.67;;;0.60;;
70312;SDS011;57723;51.698;5.344;2023-04-15T01:30:41;1.03;;;0.50;;
70312;SDS011;57723;51.698;5.344;2023-04-15T01:33:07;2.07;;;0.67;;
70312;SDS011;57723;51.698;5.344;2023-04-15T01:35:32;1.17;;;0.63;;
70312;SDS011;57723;51.698;5.344;2023-04-15T01:38:04;1.30;;;0.70;;
70312;SDS011;57723;51.698;5.344;2023-04-15T01:40:30;2.87;;;0.80;;
70312;SDS011;57723;51.698;5.344;2023-04-15T01:42:55;1.53;;;0.60;;
70312;SDS011;57723;51.698;5.344;2023-04-15T01:45:20;0.93;;;0.68;;
70312;SDS011;57723;51.698;5.344;2023-04-15T01:47:49;2.10;;;0.70;;
70312;SDS011;57723;51.698;5.344;2023-04-15T01:50:14;1.58;;;0.70;;
70312;SDS011;57723;51.698;5.344;2023-04-15T01:52:40;3.43;;;0.90;;
70312;SDS011;57723;51.698;5.344;2023-04-15T01:55:06;2.17;;;0.80;;
70312;SDS011;57723;51.698;5.344;2023-04-15T01:57:32;3.15;;;0.60;;
70312;SDS011;57723;51.698;5.344;2023-04-15T01:59:57;3.43;;;0.70;;
70312;SDS011;57723;51.698;5.344;2023-04-15T02:02:23;0.87;;;0.67;;
70312;SDS011;57723;51.698;5.344;2023-04-15T02:04:48;3.07;;;0.70;;
70312;SDS011;57723;51.698;5.344;2023-04-15T02:07:14;1.27;;;0.70;;
70312;SDS011;57723;51.698;5.344;2023-04-15T02:09:39;2.00;;;0.77;;
70312;SDS011;57723;51.698;5.344;2023-04-15T02:12:04;2.10;;;0.80;;
70312;SDS011;57723;51.698;5.344;2023-04-15T02:14:30;2.47;;;0.70;;
70312;SDS011;57723;51.698;5.344;2023-04-15T02:16:55;1.08;;;0.60;;
70312;SDS011;57723;51.698;5.344;2023-04-15T02:19:20;1.53;;;0.80;;
70312;SDS011;57723;51.698;5.344;2023-04-15T02:21:46;2.47;;;0.80;;
70312;SDS011;57723;51.698;5.344;2023-04-15T02:24:11;1.97;;;0.70;;
70312;SDS011;57723;51.698;5.344;2023-04-15T02:26:36;4.30;;;1.07;;
70312;SDS011;57723;51.698;5.344;2023-04-15T02:29:02;2.50;;;0.80;;
70312;SDS011;57723;51.698;5.344;2023-04-15T02:31:27;4.82;;;0.63;;
70312;SDS011;57723;51.698;5.344;2023-04-15T02:33:53;6.07;;;0.90;;
70312;SDS011;57723;51.698;5.344;2023-04-15T02:36:18;2.27;;;0.83;;
70312;SDS011;57723;51.698;5.344;2023-04-15T02:38:45;3.40;;;0.88;;
70312;SDS011;57723;51.698;5.344;2023-04-15T02:41:10;1.97;;;0.80;;
70312;SDS011;57723;51.698;5.344;2023-04-15T02:43:35;1.50;;;0.70;;
70312;SDS011;57723;51.698;5.344;2023-04-15T02:46:01;3.10;;;0.73;;
70312;SDS011;57723;51.698;5.344;2023-04-15T02:48:27;4.13;;;0.80;;
70312;SDS011;57723;51.698;5.344;2023-04-15T02:50:52;3.27;;;0.90;;
70312;SDS011;57723;51.698;5.344;2023-04-15T02:53:17;1.83;;;0.80;;
70312;SDS011;57723;51.698;5.344;2023-04-15T02:55:43;1.80;;;0.73;;
70312;SDS011;57723;51.698;5.344;2023-04-15T02:58:09;3.07;;;0.80;;
70312;SDS011;57723;51.698;5.344;2023-04-15T03:00:34;2.43;;;1.00;;
70312;SDS011;57723;51.698;5.344;2023-04-15T03:03:01;0.97;;;0.60;;
70312;SDS011;57723;51.698;5.344;2023-04-15T03:05:26;2.45;;;1.02;;
70312;SDS011;57723;51.698;5.344;2023-04-15T03:07:52;2.63;;;0.97;;
70312;SDS011;57723;51.698;5.344;2023-04-15T03:10:17;2.65;;;0.80;;
70312;SDS011;57723;51.698;5.344;2023-04-15T03:12:42;2.80;;;0.90;;
70312;SDS011;57723;51.698;5.344;2023-04-15T03:15:08;1.80;;;0.50;;
70312;SDS011;57723;51.698;5.344;2023-04-15T03:17:33;3.57;;;0.83;;
70312;SDS011;57723;51.698;5.344;2023-04-15T03:20:00;1.60;;;0.80;;
70312;SDS011;57723;51.698;5.344;2023-04-15T03:22:25;2.20;;;0.90;;
70312;SDS011;57723;51.698;5.344;2023-04-15T03:24:50;1.07;;;0.60;;
70312;SDS011;57723;51.698;5.344;2023-04-15T03:27:16;2.70;;;0.70;;
70312;SDS011;57723;51.698;5.344;2023-04-15T03:29:41;2.23;;;0.77;;
70312;SDS011;57723;51.698;5.344;2023-04-15T03:32:06;4.40;;;1.03;;
70312;SDS011;57723;51.698;5.344;2023-04-15T03:34:32;3.83;;;0.87;;
70312;SDS011;57723;51.698;5.344;2023-04-15T03:36:57;1.43;;;0.70;;
70312;SDS011;57723;51.698;5.344;2023-04-15T03:39:22;3.85;;;0.70;;
70312;SDS011;57723;51.698;5.344;2023-04-15T03:41:47;3.37;;;0.80;;
70312;SDS011;57723;51.698;5.344;2023-04-15T03:44:13;2.73;;;0.63;;
70312;SDS011;57723;51.698;5.344;2023-04-15T03:46:38;7.87;;;0.90;;
70312;SDS011;57723;51.698;5.344;2023-04-15T03:49:05;2.43;;;0.70;;
70312;SDS011;57723;51.698;5.344;2023-04-15T03:51:30;5.05;;;0.82;;
70312;SDS011;57723;51.698;5.344;2023-04-15T03:53:56;3.60;;;0.80;;
70312;SDS011;57723;51.698;5.344;2023-04-15T03:56:23;1.90;;;0.77;;
70312;SDS011;57723;51.698;5.344;2023-04-15T03:58:48;2.27;;;0.80;;
70312;SDS011;57723;51.698;5.344;2023-04-15T04:01:13;2.23;;;0.80;;
70312;SDS011;57723;51.698;5.344;2023-04-15T04:03:38;1.02;;;0.70;;
70312;SDS011;57723;51.698;5.344;2023-04-15T04:06:04;1.27;;;0.75;;
70312;SDS011;57723;51.698;5.344;2023-04-15T04:08:29;1.98;;;0.75;;
70312;SDS011;57723;51.698;5.344;2023-04-15T04:10:54;1.57;;;0.90;;
70312;SDS011;57723;51.698;5.344;2023-04-15T04:13:20;1.27;;;0.77;;
70312;SDS011;57723;51.698;5.344;2023-04-15T04:15:45;3.73;;;0.83;;
70312;SDS011;57723;51.698;5.344;2023-04-15T04:18:10;1.93;;;0.63;;
70312;SDS011;57723;51.698;5.344;2023-04-15T04:20:36;3.95;;;0.77;;
70312;SDS011;57723;51.698;5.344;2023-04-15T04:23:01;1.60;;;1.00;;
70312;SDS011;57723;51.698;5.344;2023-04-15T04:25:27;2.23;;;0.70;;
70312;SDS011;57723;51.698;5.344;2023-04-15T04:27:52;5.07;;;1.00;;
70312;SDS011;57723;51.698;5.344;2023-04-15T04:30:17;3.07;;;0.97;;
70312;SDS011;57723;51.698;5.344;2023-04-15T04:32:43;2.40;;;0.80;;
70312;SDS011;57723;51.698;5.344;2023-04-15T04:35:08;5.53;;;0.98;;
70312;SDS011;57723;51.698;5.344;2023-04-15T04:37:33;1.70;;;0.80;;
70312;SDS011;57723;51.698;5.344;2023-04-15T04:39:59;3.05;;;0.90;;
70312;SDS011;57723;51.698;5.344;2023-04-15T04:42:24;1.70;;;1.00;;
70312;SDS011;57723;51.698;5.344;2023-04-15T04:44:49;1.57;;;0.80;;
70312;SDS011;57723;51.698;5.344;2023-04-15T04:47:15;3.13;;;1.10;;
70312;SDS011;57723;51.698;5.344;2023-04-15T04:49:40;1.50;;;0.77;;
70312;SDS011;57723;51.698;5.344;2023-04-15T04:52:06;2.38;;;0.73;;
70312;SDS011;57723;51.698;5.344;2023-04-15T04:54:31;3.43;;;0.80;;
70312;SDS011;57723;51.698;5.344;2023-04-15T04:56:56;3.03;;;0.97;;
70312;SDS011;57723;51.698;5.344;2023-04-15T04:59:23;2.75;;;0.80;;
70312;SDS011;57723;51.698;5.344;2023-04-15T05:01:48;3.10;;;0.93;;
70312;SDS011;57723;51.698;5.344;2023-04-15T05:04:13;2.80;;;1.00;;
70312;SDS011;57723;51.698;5.344;2023-04-15T05:06:39;2.07;;;0.90;;
70312;SDS011;57723;51.698;5.344;2023-04-15T05:09:04;2.20;;;1.20;;
70312;SDS011;57723;51.698;5.344;2023-04-15T05:11:30;1.45;;;0.93;;
70312;SDS011;57723;51.698;5.344;2023-04-15T05:13:55;1.63;;;0.80;;
70312;SDS011;57723;51.698;5.344;2023-04-15T05:16:22;3.05;;;1.02;;
70312;SDS011;57723;51.698;5.344;2023-04-15T05:18:47;1.60;;;0.80;;
70312;SDS011;57723;51.698;5.344;2023-04-15T05:21:12;3.23;;;0.93;;
70312;SDS011;57723;51.698;5.344;2023-04-15T05:23:38;1.73;;;0.90;;
70312;SDS011;57723;51.698;5.344;2023-04-15T05:26:03;4.10;;;0.90;;
70312;SDS011;57723;51.698;5.344;2023-04-15T05:28:28;1.60;;;0.90;;
70312;SDS011;57723;51.698;5.344;2023-04-15T05:30:54;3.20;;;1.00;;
70312;SDS011;57723;51.698;5.344;2023-04-15T05:33:19;1.15;;;0.73;;
70312;SDS011;57723;51.698;5.344;2023-04-15T05:35:45;3.27;;;0.83;;
70312;SDS011;57723;51.698;5.344;2023-04-15T05:38:10;1.73;;;0.80;;
70312;SDS011;57723;51.698;5.344;2023-04-15T05:40:35;2.60;;;0.90;;
70312;SDS011;57723;51.698;5.344;2023-04-15T05:43:00;1.00;;;0.80;;
70312;SDS011;57723;51.698;5.344;2023-04-15T05:45:26;3.30;;;1.00;;
70312;SDS011;57723;51.698;5.344;2023-04-15T05:47:51;3.93;;;1.23;;
70312;SDS011;57723;51.698;5.344;2023-04-15T05:50:19;1.27;;;0.88;;
70312;SDS011;57723;51.698;5.344;2023-04-15T05:52:45;3.33;;;0.90;;
70312;SDS011;57723;51.698;5.344;2023-04-15T05:55:10;3.67;;;1.63;;
70312;SDS011;57723;51.698;5.344;2023-04-15T05:57:36;2.85;;;0.88;;
70312;SDS011;57723;51.698;5.344;2023-04-15T06:00:02;1.93;;;0.87;;
70312;SDS011;57723;51.698;5.344;2023-04-15T06:02:27;5.47;;;1.00;;
70312;SDS011;57723;51.698;5.344;2023-04-15T06:04:53;2.27;;;0.90;;
70312;SDS011;57723;51.698;5.344;2023-04-15T06:07:18;8.67;;;1.30;;
70312;SDS011;57723;51.698;5.344;2023-04-15T06:09:43;7.53;;;1.40;;
70312;SDS011;57723;51.698;5.344;2023-04-15T06:12:09;3.53;;;1.17;;
70312;SDS011;57723;51.698;5.344;2023-04-15T06:14:36;5.40;;;1.35;;
70312;SDS011;57723;51.698;5.344;2023-04-15T06:17:02;3.70;;;1.50;;
70312;SDS011;57723;51.698;5.344;2023-04-15T06:19:27;7.60;;;1.33;;
70312;SDS011;57723;51.698;5.344;2023-04-15T06:21:53;9.60;;;1.13;;
70312;SDS011;57723;51.698;5.344;2023-04-15T06:24:18;6.73;;;1.33;;
70312;SDS011;57723;51.698;5.344;2023-04-15T06:26:44;4.10;;;1.13;;
70312;SDS011;57723;51.698;5.344;2023-04-15T06:29:09;3.43;;;1.20;;
70312;SDS011;57723;51.698;5.344;2023-04-15T06:31:34;10.70;;;1.20;;
70312;SDS011;57723;51.698;5.344;2023-04-15T06:34:00;4.40;;;1.00;;
70312;SDS011;57723;51.698;5.344;2023-04-15T06:36:25;5.22;;;1.00;;
70312;SDS011;57723;51.698;5.344;2023-04-15T06:38:51;3.78;;;1.10;;
70312;SDS011;57723;51.698;5.344;2023-04-15T06:41:17;3.50;;;1.20;;
70312;SDS011;57723;51.698;5.344;2023-04-15T06:43:42;4.05;;;1.10;;
70312;SDS011;57723;51.698;5.344;2023-04-15T06:46:10;3.00;;;1.20;;
70312;SDS011;57723;51.698;5.344;2023-04-15T06:48:36;3.72;;;1.23;;
70312;SDS011;57723;51.698;5.344;2023-04-15T06:51:01;2.23;;;1.10;;
70312;SDS011;57723;51.698;5.344;2023-04-15T06:53:28;3.47;;;1.40;;
70312;SDS011;57723;51.698;5.344;2023-04-15T06:55:53;2.60;;;1.13;;
70312;SDS011;57723;51.698;5.344;2023-04-15T06:58:18;2.03;;;1.00;;
70312;SDS011;57723;51.698;5.344;2023-04-15T07:00:44;4.80;;;1.40;;
70312;SDS011;57723;51.698;5.344;2023-04-15T07:03:10;3.43;;;1.40;;
70312;SDS011;57723;51.698;5.344;2023-04-15T07:05:36;2.25;;;1.15;;
70312;SDS011;57723;51.698;5.344;2023-04-15T07:08:05;2.57;;;1.20;;
70312;SDS011;57723;51.698;5.344;2023-04-15T07:10:31;3.15;;;1.10;;
70312;SDS011;57723;51.698;5.344;2023-04-15T07:12:56;4.15;;;1.23;;
70312;SDS011;57723;51.698;5.344;2023-04-15T07:15:21;2.90;;;1.10;;
70312;SDS011;57723;51.698;5.344;2023-04-15T07:17:47;2.80;;;1.23;;
70312;SDS011;57723;51.698;5.344;2023-04-15T07:20:13;2.57;;;1.10;;
70312;SDS011;57723;51.698;5.344;2023-04-15T07:22:38;4.40;;;1.10;;
70312;SDS011;57723;51.698;5.344;2023-04-15T07:25:04;3.30;;;1.10;;
70312;SDS011;57723;51.698;5.344;2023-04-15T07:27:29;2.47;;;1.20;;
70312;SDS011;57723;51.698;5.344;2023-04-15T07:29:55;1.58;;;1.00;;
70312;SDS011;57723;51.698;5.344;2023-04-15T07:32:20;2.50;;;1.20;;
70312;SDS011;57723;51.698;5.344;2023-04-15T07:34:45;3.87;;;1.10;;
70312;SDS011;57723;51.698;5.344;2023-04-15T07:37:11;2.03;;;1.00;;
70312;SDS011;57723;51.698;5.344;2023-04-15T07:39:36;2.20;;;1.00;;
70312;SDS011;57723;51.698;5.344;2023-04-15T07:42:02;4.55;;;1.48;;
70312;SDS011;57723;51.698;5.344;2023-04-15T07:44:28;6.13;;;1.30;;
70312;SDS011;57723;51.698;5.344;2023-04-15T07:46:53;2.88;;;1.30;;
70312;SDS011;57723;51.698;5.344;2023-04-15T07:49:18;3.17;;;1.20;;
70312;SDS011;57723;51.698;5.344;2023-04-15T07:51:45;3.10;;;1.20;;
70312;SDS011;57723;51.698;5.344;2023-04-15T07:54:10;3.08;;;1.30;;
70312;SDS011;57723;51.698;5.344;2023-04-15T07:56:36;2.20;;;1.20;;
70312;SDS011;57723;51.698;5.344;2023-04-15T07:59:01;2.27;;;1.30;;
70312;SDS011;57723;51.698;5.344;2023-04-15T08:01:28;2.90;;;1.48;;
70312;SDS011;57723;51.698;5.344;2023-04-15T08:03:54;2.50;;;1.38;;
70312;SDS011;57723;51.698;5.344;2023-04-15T08:06:19;3.70;;;1.40;;
70312;SDS011;57723;51.698;5.344;2023-04-15T08:08:45;2.63;;;1.30;;
70312;SDS011;57723;51.698;5.344;2023-04-15T08:11:11;2.53;;;1.50;;
70312;SDS011;57723;51.698;5.344;2023-04-15T08:13:36;4.17;;;1.40;;
70312;SDS011;57723;51.698;5.344;2023-04-15T08:16:18;2.17;;;1.30;;
70312;SDS011;57723;51.698;5.344;2023-04-15T08:18:44;3.70;;;1.50;;
70312;SDS011;57723;51.698;5.344;2023-04-15T08:21:09;2.75;;;1.40;;
70312;SDS011;57723;51.698;5.344;2023-04-15T08:23:35;3.20;;;1.43;;
70312;SDS011;57723;51.698;5.344;2023-04-15T08:26:00;3.50;;;1.30;;
70312;SDS011;57723;51.698;5.344;2023-04-15T08:28:26;3.22;;;1.25;;
70312;SDS011;57723;51.698;5.344;2023-04-15T08:30:51;2.77;;;1.33;;
70312;SDS011;57723;51.698;5.344;2023-04-15T08:33:17;2.80;;;1.50;;
70312;SDS011;57723;51.698;5.344;2023-04-15T08:35:42;3.13;;;1.20;;
70312;SDS011;57723;51.698;5.344;2023-04-15T08:38:07;3.10;;;1.30;;
70312;SDS011;57723;51.698;5.344;2023-04-15T08:40:35;2.00;;;1.20;;
70312;SDS011;57723;51.698;5.344;2023-04-15T08:43:04;1.77;;;1.07;;
70312;SDS011;57723;51.698;5.344;2023-04-15T08:45:30;2.60;;;1.20;;
70312;SDS011;57723;51.698;5.344;2023-04-15T08:47:56;1.98;;;1.13;;
70312;SDS011;57723;51.698;5.344;2023-04-15T08:50:22;2.77;;;1.20;;
70312;SDS011;57723;51.698;5.344;2023-04-15T08:52:52;1.90;;;1.15;;
70312;SDS011;57723;51.698;5.344;2023-04-15T08:55:17;2.25;;;1.20;;
70312;SDS011;57723;51.698;5.344;2023-04-15T08:57:43;2.78;;;1.17;;
70312;SDS011;57723;51.698;5.344;2023-04-15T09:00:09;1.95;;;0.93;;
70312;SDS011;57723;51.698;5.344;2023-04-15T09:02:34;2.83;;;1.07;;
70312;SDS011;57723;51.698;5.344;2023-04-15T09:05:02;1.93;;;1.00;;
70312;SDS011;57723;51.698;5.344;2023-04-15T09:07:32;2.47;;;1.10;;
70312;SDS011;57723;51.698;5.344;2023-04-15T09:09:57;2.10;;;0.98;;
70312;SDS011;57723;51.698;5.344;2023-04-15T09:12:22;1.77;;;0.90;;
70312;SDS011;57723;51.698;5.344;2023-04-15T09:14:48;1.37;;;0.90;;
70312;SDS011;57723;51.698;5.344;2023-04-15T09:17:13;1.73;;;0.90;;
70312;SDS011;57723;51.698;5.344;2023-04-15T09:19:42;1.75;;;1.00;;
70312;SDS011;57723;51.698;5.344;2023-04-15T09:22:07;2.40;;;1.10;;
70312;SDS011;57723;51.698;5.344;2023-04-15T09:24:36;2.40;;;1.00;;
70312;SDS011;57723;51.698;5.344;2023-04-15T09:27:03;1.67;;;0.90;;
70312;SDS011;57723;51.698;5.344;2023-04-15T09:29:28;2.90;;;1.10;;
70312;SDS011;57723;51.698;5.344;2023-04-15T09:31:53;2.37;;;0.90;;
70312;SDS011;57723;51.698;5.344;2023-04-15T09:34:18;2.33;;;0.90;;
70312;SDS011;57723;51.698;5.344;2023-04-15T09:39:19;1.52;;;0.90;;
70312;SDS011;57723;51.698;5.344;2023-04-15T09:41:45;1.80;;;0.90;;
70312;SDS011;57723;51.698;5.344;2023-04-15T09:44:23;2.17;;;1.00;;
70312;SDS011;57723;51.698;5.344;2023-04-15T09:46:48;0.93;;;0.70;;
70312;SDS011;57723;51.698;5.344;2023-04-15T09:49:14;1.63;;;0.90;;
70312;SDS011;57723;51.698;5.344;2023-04-15T09:51:40;2.38;;;1.00;;
70312;SDS011;57723;51.698;5.344;2023-04-15T09:54:05;1.50;;;0.90;;
70312;SDS011;57723;51.698;5.344;2023-04-15T09:56:33;1.67;;;0.95;;
70312;SDS011;57723;51.698;5.344;2023-04-15T09:58:59;1.58;;;0.80;;
70312;SDS011;57723;51.698;5.344;2023-04-15T10:01:24;1.80;;;0.90;;
70312;SDS011;57723;51.698;5.344;2023-04-15T10:03:49;1.20;;;0.90;;
70312;SDS011;57723;51.698;5.344;2023-04-15T10:06:16;1.23;;;0.70;;
70312;SDS011;57723;51.698;5.344;2023-04-15T10:08:41;2.40;;;0.80;;
70312;SDS011;57723;51.698;5.344;2023-04-15T10:11:07;1.80;;;0.90;;
70312;SDS011;57723;51.698;5.344;2023-04-15T10:13:32;1.15;;;0.80;;
70312;SDS011;57723;51.698;5.344;2023-04-15T10:16:03;2.13;;;0.90;;
70312;SDS011;57723;51.698;5.344;2023-04-15T10:18:29;1.15;;;0.85;;
70312;SDS011;57723;51.698;5.344;2023-04-15T10:20:55;1.33;;;0.80;;
70312;SDS011;57723;51.698;5.344;2023-04-15T10:23:23;1.10;;;0.70;;
70312;SDS011;57723;51.698;5.344;2023-04-15T10:25:50;1.70;;;0.80;;
70312;SDS011;57723;51.698;5.344;2023-04-15T10:28:16;1.38;;;0.80;;
70312;SDS011;57723;51.698;5.344;2023-04-15T10:30:42;0.70;;;0.60;;
70312;SDS011;57723;51.698;5.344;2023-04-15T10:33:07;0.90;;;0.60;;
70312;SDS011;57723;51.698;5.344;2023-04-15T10:35:33;1.85;;;0.90;;
70312;SDS011;57723;51.698;5.344;2023-04-15T10:37:58;1.73;;;0.83;;
70312;SDS011;57723;51.698;5.344;2023-04-15T10:42:55;1.92;;;0.82;;
70312;SDS011;57723;51.698;5.344;2023-04-15T10:45:20;1.10;;;0.80;;
70312;SDS011;57723;51.698;5.344;2023-04-15T10:47:50;1.33;;;0.70;;
70312;SDS011;57723;51.698;5.344;2023-04-15T10:50:15;2.38;;;0.70;;
70312;SDS011;57723;51.698;5.344;2023-04-15T10:52:42;2.97;;;1.00;;
70312;SDS011;57723;51.698;5.344;2023-04-15T10:57:42;1.30;;;0.70;;
70312;SDS011;57723;51.698;5.344;2023-04-15T11:00:11;1.10;;;0.80;;
70312;SDS011;57723;51.698;5.344;2023-04-15T11:05:05;1.13;;;0.73;;
70312;SDS011;57723;51.698;5.344;2023-04-15T11:09:59;2.35;;;0.80;;
70312;SDS011;57723;51.698;5.344;2023-04-15T11:12:35;1.27;;;0.80;;
70312;SDS011;57723;51.698;5.344;2023-04-15T11:17:44;2.03;;;0.80;;
70312;SDS011;57723;51.698;5.344;2023-04-15T11:20:13;1.10;;;0.70;;
70312;SDS011;57723;51.698;5.344;2023-04-15T11:22:52;1.17;;;0.80;;
70312;SDS011;57723;51.698;5.344;2023-04-15T11:25:30;3.15;;;0.60;;
70312;SDS011;57723;51.698;5.344;2023-04-15T11:27:57;1.50;;;0.70;;
70312;SDS011;57723;51.698;5.344;2023-04-15T11:30:23;1.10;;;0.57;;
70312;SDS011;57723;51.698;5.344;2023-04-15T11:32:49;1.80;;;0.70;;
70312;SDS011;57723;51.698;5.344;2023-04-15T11:35:17;1.20;;;0.80;;
70312;SDS011;57723;51.698;5.344;2023-04-15T11:37:42;1.58;;;0.80;;
70312;SDS011;57723;51.698;5.344;2023-04-15T11:40:08;1.33;;;0.70;;
70312;SDS011;57723;51.698;5.344;2023-04-15T11:42:33;1.70;;;0.70;;
70312;SDS011;57723;51.698;5.344;2023-04-15T11:45:06;1.77;;;0.80;;
70312;SDS011;57723;51.698;5.344;2023-04-15T11:47:31;2.03;;;0.80;;
70312;SDS011;57723;51.698;5.344;2023-04-15T11:49:58;2.03;;;0.70;;
70312;SDS011;57723;51.698;5.344;2023-04-15T11:52:37;1.40;;;1.00;;
70312;SDS011;57723;51.698;5.344;2023-04-15T11:55:02;1.67;;;0.90;;
70312;SDS011;57723;51.698;5.344;2023-04-15T11:57:31;2.13;;;0.80;;
70312;SDS011;57723;51.698;5.344;2023-04-15T11:59:56;1.70;;;0.88;;
70312;SDS011;57723;51.698;5.344;2023-04-15T12:02:29;1.85;;;0.90;;
70312;SDS011;57723;51.698;5.344;2023-04-15T12:05:01;1.07;;;0.70;;
70312;SDS011;57723;51.698;5.344;2023-04-15T12:07:27;1.63;;;0.70;;
70312;SDS011;57723;51.698;5.344;2023-04-15T12:09:56;1.87;;;0.80;;
70312;SDS011;57723;51.698;5.344;2023-04-15T12:12:25;0.90;;;0.77;;
70312;SDS011;57723;51.698;5.344;2023-04-15T12:14:51;1.63;;;0.75;;
70312;SDS011;57723;51.698;5.344;2023-04-15T12:17:16;1.00;;;0.70;;
70312;SDS011;57723;51.698;5.344;2023-04-15T12:19:42;2.20;;;0.90;;
70312;SDS011;57723;51.698;5.344;2023-04-15T12:22:13;1.45;;;0.73;;
70312;SDS011;57723;51.698;5.344;2023-04-15T12:24:39;2.35;;;1.13;;
70312;SDS011;57723;51.698;5.344;2023-04-15T12:27:10;1.27;;;0.90;;
70312;SDS011;57723;51.698;5.344;2023-04-15T12:29:36;1.45;;;0.85;;
70312;SDS011;57723;51.698;5.344;2023-04-15T12:32:08;1.57;;;0.90;;
70312;SDS011;57723;51.698;5.344;2023-04-15T12:34:40;1.83;;;0.90;;
70312;SDS011;57723;51.698;5.344;2023-04-15T12:37:06;1.55;;;0.80;;
70312;SDS011;57723;51.698;5.344;2023-04-15T12:39:37;1.98;;;0.80;;
70312;SDS011;57723;51.698;5.344;2023-04-15T12:42:02;2.45;;;0.82;;
70312;SDS011;57723;51.698;5.344;2023-04-15T12:44:28;2.40;;;0.90;;
70312;SDS011;57723;51.698;5.344;2023-04-15T12:46:53;1.90;;;0.70;;
70312;SDS011;57723;51.698;5.344;2023-04-15T12:49:20;2.20;;;0.70;;
70312;SDS011;57723;51.698;5.344;2023-04-15T12:51:48;1.27;;;0.70;;
70312;SDS011;57723;51.698;5.344;2023-04-15T12:54:15;1.48;;;0.80;;
70312;SDS011;57723;51.698;5.344;2023-04-15T12:56:41;1.50;;;0.80;;
70312;SDS011;57723;51.698;5.344;2023-04-15T12:59:06;1.38;;;0.70;;
70312;SDS011;57723;51.698;5.344;2023-04-15T13:01:31;1.83;;;1.17;;
70312;SDS011;57723;51.698;5.344;2023-04-15T13:03:56;3.23;;;1.20;;
70312;SDS011;57723;51.698;5.344;2023-04-15T13:06:22;2.63;;;1.20;;
70312;SDS011;57723;51.698;5.344;2023-04-15T13:08:48;3.83;;;0.90;;
70312;SDS011;57723;51.698;5.344;2023-04-15T13:11:13;2.47;;;1.40;;
70312;SDS011;57723;51.698;5.344;2023-04-15T13:13:39;4.80;;;1.43;;
70312;SDS011;57723;51.698;5.344;2023-04-15T13:16:04;3.43;;;1.70;;
70312;SDS011;57723;51.698;5.344;2023-04-15T13:18:30;2.67;;;1.30;;
70312;SDS011;57723;51.698;5.344;2023-04-15T13:20:55;4.33;;;1.53;;
70312;SDS011;57723;51.698;5.344;2023-04-15T13:23:20;4.17;;;1.70;;
70312;SDS011;57723;51.698;5.344;2023-04-15T13:25:45;4.37;;;1.80;;
70312;SDS011;57723;51.698;5.344;2023-04-15T13:28:11;4.50;;;2.00;;
70312;SDS011;57723;51.698;5.344;2023-04-15T13:30:36;6.30;;;2.00;;
70312;SDS011;57723;51.698;5.344;2023-04-15T13:33:02;6.07;;;1.93;;
70312;SDS011;57723;51.698;5.344;2023-04-15T13:35:27;5.37;;;1.90;;
70312;SDS011;57723;51.698;5.344;2023-04-15T13:37:52;5.57;;;1.90;;
70312;SDS011;57723;51.698;5.344;2023-04-15T13:40:18;5.70;;;1.63;;
70312;SDS011;57723;51.698;5.344;2023-04-15T13:42:44;5.00;;;1.50;;
70312;SDS011;57723;51.698;5.344;2023-04-15T13:45:09;4.15;;;1.50;;
70312;SDS011;57723;51.698;5.344;2023-04-15T13:47:35;3.27;;;1.40;;
70312;SDS011;57723;51.698;5.344;2023-04-15T13:50:00;2.63;;;1.27;;
70312;SDS011;57723;51.698;5.344;2023-04-15T13:52:26;4.10;;;1.60;;
70312;SDS011;57723;51.698;5.344;2023-04-15T13:54:51;3.50;;;1.30;;
70312;SDS011;57723;51.698;5.344;2023-04-15T13:57:16;5.60;;;1.50;;
70312;SDS011;57723;51.698;5.344;2023-04-15T13:59:42;6.63;;;1.47;;
70312;SDS011;57723;51.698;5.344;2023-04-15T14:02:08;2.38;;;1.13;;
70312;SDS011;57723;51.698;5.344;2023-04-15T14:04:33;3.53;;;1.13;;
70312;SDS011;57723;51.698;5.344;2023-04-15T14:06:59;2.47;;;1.00;;
70312;SDS011;57723;51.698;5.344;2023-04-15T14:09:24;3.77;;;1.20;;
70312;SDS011;57723;51.698;5.344;2023-04-15T14:11:50;2.20;;;1.05;;
70312;SDS011;57723;51.698;5.344;2023-04-15T14:14:15;2.47;;;1.17;;
70312;SDS011;57723;51.698;5.344;2023-04-15T14:16:40;2.03;;;0.90;;
70312;SDS011;57723;51.698;5.344;2023-04-15T14:19:06;1.57;;;1.00;;
70312;SDS011;57723;51.698;5.344;2023-04-15T14:21:31;4.23;;;0.90;;
70312;SDS011;57723;51.698;5.344;2023-04-15T14:23:56;2.63;;;0.90;;
70312;SDS011;57723;51.698;5.344;2023-04-15T14:26:22;4.10;;;0.95;;
70312;SDS011;57723;51.698;5.344;2023-04-15T14:28:47;1.60;;;0.77;;
70312;SDS011;57723;51.698;5.344;2023-04-15T14:31:12;2.77;;;0.90;;
70312;SDS011;57723;51.698;5.344;2023-04-15T14:33:38;2.40;;;0.90;;
70312;SDS011;57723;51.698;5.344;2023-04-15T14:36:03;1.70;;;0.90;;
70312;SDS011;57723;51.698;5.344;2023-04-15T14:38:29;2.47;;;0.97;;
70312;SDS011;57723;51.698;5.344;2023-04-15T14:40:55;1.37;;;0.70;;
70312;SDS011;57723;51.698;5.344;2023-04-15T14:43:20;1.60;;;0.90;;
70312;SDS011;57723;51.698;5.344;2023-04-15T14:45:46;2.20;;;0.80;;
70312;SDS011;57723;51.698;5.344;2023-04-15T14:48:11;1.42;;;0.70;;
70312;SDS011;57723;51.698;5.344;2023-04-15T14:50:37;1.93;;;0.80;;
70312;SDS011;57723;51.698;5.344;2023-04-15T14:53:02;1.73;;;0.70;;
70312;SDS011;57723;51.698;5.344;2023-04-15T14:55:27;1.27;;;0.57;;